Terminal Aerodrome Forecast
Issued by NWS

Home | Current Version | Previous Version | Graphics & Text | Print | Product List | Glossary On
Versions: 1 2 3 4 5 6 7 8 9 10 11 12 13 14 15 16 17 18 19 20 21 22
000
FTUS43 KTOP 260100 AAA
TAFMHK
TAF AMD
KMHK 260100Z 2601/2624 35005KT P6SM OVC013
     FM260400 33003KT P6SM OVC009
     FM260900 31002KT 3SM BR OVC004
     FM261600 VRB02KT P6SM OVC014
     FM261900 06006KT P6SM BKN040=

USA.gov is the U.S. government's official web portal to all federal, state and local government web resources and services.